Jupiter, Florida
Current Conditions -  °F | °C
As of 8:53 AM on Thursday 27 Nov 2014 (Local Time) from KPBI Reporting Station
Scattered Clouds Scattered Clouds  
Wind Chill: 59°   Ceiling: Unl
Heat Index: 59°   Visibility: 10mi
Dew Point: 43°   Wind: 12mph
Humidity: 55%   Direction: 320°NW
Pressure: 30.27"   Gusts: NA
Location:  26.93°N, 80.1°W
Report Text: KPBI 271353Z 32010KT 10SM FEW035 SCT250 15/06 A3027 RMK AO2 SLP250 T01500061
Loading
Personal Weather Stations






























Interactive Weather Map New forecast layout! Learn more

10-Day Weather Forecast

Advertisements
Track Severe Weather on mobile